Time;durP1;ratioP1;P1;durP2;ratioP2;P2;SDS_P1;SDS_P2;PMS_P1;PMS_P2;Temp;Humidity;BMP_temperature;BMP_pressure;BME280_temperature;BME280_humidity;BME280_pressure;Samples;Min_cycle;Max_cycle;Signal;HPM_P1;HPM_P2
2022/02/24 00:01:45;;;;;;;3.20;2.20;;;;;;;19.29;44.09;101613.34;4986728;28;20221;-44
2022/02/24 00:04:10;;;;;;;3.50;1.98;;;;;;;19.30;43.94;101603.59;4987289;28;20141;-47
2022/02/24 00:06:37;;;;;;;3.40;2.40;;;;;;;19.29;44.16;101597.50;4987414;28;20023;-42
2022/02/24 00:09:03;;;;;;;3.13;1.92;;;;;;;19.29;43.77;101613.34;4986546;28;20034;-48
2022/02/24 00:11:28;;;;;;;4.53;2.15;;;;;;;19.28;43.96;101611.69;4986488;28;20406;-50
2022/02/24 00:13:54;;;;;;;3.05;1.75;;;;;;;19.28;44.09;101597.66;4967534;28;20039;-43
2022/02/24 00:16:19;;;;;;;3.13;1.95;;;;;;;19.28;43.91;101610.88;4966615;28;20069;-47
2022/02/24 00:18:45;;;;;;;5.57;2.10;;;;;;;19.27;43.89;101610.06;4967831;28;20042;-47
2022/02/24 00:21:11;;;;;;;6.57;1.92;;;;;;;19.26;43.91;101611.06;4966641;28;20081;-48
2022/02/24 00:23:36;;;;;;;3.70;2.15;;;;;;;19.26;43.84;101608.41;4967973;28;20042;-42
2022/02/24 00:26:02;;;;;;;5.63;1.70;;;;;;;19.25;43.83;101595.38;4965633;28;20072;-47
2022/02/24 00:28:27;;;;;;;4.25;1.45;;;;;;;19.22;43.68;101591.25;4965605;28;20641;-43
2022/02/24 00:30:53;;;;;;;3.25;1.80;;;;;;;19.23;43.63;101587.63;4965895;28;20038;-44
2022/02/24 00:33:18;;;;;;;2.80;1.45;;;;;;;19.21;43.78;101594.88;4968302;28;20041;-48
2022/02/24 00:35:44;;;;;;;3.38;1.77;;;;;;;19.21;43.68;101586.97;4967950;28;20038;-49
2022/02/24 00:38:09;;;;;;;2.17;1.30;;;;;;;19.20;43.56;101583.50;4968363;28;20049;-47
2022/02/24 00:40:35;;;;;;;2.00;1.50;;;;;;;19.18;43.61;101574.94;4963194;28;20397;-52
2022/02/24 00:43:00;;;;;;;2.75;1.35;;;;;;;19.17;43.63;101572.47;4966929;28;20078;-49
2022/02/24 00:45:26;;;;;;;2.28;1.38;;;;;;;19.18;43.65;101584.66;4966764;28;20379;-46
2022/02/24 00:47:51;;;;;;;3.08;1.45;;;;;;;19.16;43.60;101578.75;4968245;28;20018;-47
2022/02/24 00:50:17;;;;;;;2.05;1.23;;;;;;;19.15;43.73;101585.03;4966556;28;20078;-44
2022/02/24 00:52:42;;;;;;;3.42;1.63;;;;;;;19.14;43.59;101580.72;4967635;28;20054;-49
2022/02/24 00:55:08;;;;;;;2.92;1.67;;;;;;;19.13;43.69;101577.25;4963222;28;20085;-43
2022/02/24 00:57:34;;;;;;;3.28;1.33;;;;;;;19.13;43.65;101576.44;4951132;28;20030;-42
2022/02/24 00:59:59;;;;;;;2.53;1.27;;;;;;;19.11;43.58;101581.06;4966197;28;20473;-46
2022/02/24 01:02:25;;;;;;;2.75;1.27;;;;;;;19.11;43.59;101583.72;4965847;28;20034;-50
2022/02/24 01:04:50;;;;;;;2.58;1.20;;;;;;;19.09;43.58;101575.97;4967992;28;20150;-49
2022/02/24 01:07:16;;;;;;;3.53;1.60;;;;;;;19.09;43.60;101569.84;4965692;28;20034;-43
2022/02/24 01:09:41;;;;;;;2.78;1.67;;;;;;;19.09;43.54;101572.50;4966446;28;20115;-41
2022/02/24 01:12:08;;;;;;;5.68;2.15;;;;;;;19.10;43.48;101571.50;4966488;28;20046;-48
2022/02/24 01:14:34;;;;;;;3.97;1.58;;;;;;;19.09;43.49;101569.84;4948527;28;20521;-45
2022/02/24 01:16:59;;;;;;;2.30;1.30;;;;;;;19.09;43.55;101568.03;4965828;28;20054;-46
2022/02/24 01:19:25;;;;;;;2.25;1.40;;;;;;;19.09;43.45;101568.03;4967457;28;20394;-49
2022/02/24 01:21:50;;;;;;;4.90;1.67;;;;;;;19.08;43.58;101569.03;4966195;28;20066;-42
2022/02/24 01:24:16;;;;;;;1.88;1.50;;;;;;;19.09;43.69;101567.22;4964018;28;20034;-42
2022/02/24 01:26:41;;;;;;;3.88;1.25;;;;;;;19.09;43.56;101570.69;4967363;28;20058;-44
2022/02/24 01:29:07;;;;;;;3.40;1.48;;;;;;;19.10;43.36;101563.56;4966843;28;20498;-45
2022/02/24 01:31:33;;;;;;;3.05;1.60;;;;;;;19.09;43.41;101557.47;4965656;28;20031;-48
2022/02/24 01:33:58;;;;;;;3.20;1.90;;;;;;;19.09;43.36;101556.66;4967456;28;20041;-51
2022/02/24 01:36:24;;;;;;;2.28;1.15;;;;;;;19.08;43.44;101555.00;4967112;28;20038;-46
2022/02/24 01:38:49;;;;;;;2.30;1.35;;;;;;;19.07;43.32;101554.19;4966972;28;20089;-43
2022/02/24 01:41:15;;;;;;;2.90;1.67;;;;;;;19.06;43.12;101546.44;4959842;28;20569;-44
2022/02/24 01:43:46;;;;;;;2.00;1.42;;;;;;;19.05;43.20;101550.88;4970487;28;20074;-40
2022/02/24 01:46:12;;;;;;;2.33;1.23;;;;;;;19.05;43.04;101540.31;4951275;28;20106;-41
2022/02/24 01:48:37;;;;;;;2.85;1.58;;;;;;;19.06;43.00;101543.78;4971621;28;20073;-43
2022/02/24 01:51:03;;;;;;;2.50;1.15;;;;;;;19.04;42.98;101543.97;4970036;28;20046;-43
2022/02/24 01:53:29;;;;;;;2.85;1.42;;;;;;;19.03;43.17;101537.03;4970527;28;20042;-47
2022/02/24 01:55:54;;;;;;;2.17;1.52;;;;;;;19.02;43.16;101532.75;4961640;28;20121;-43
2022/02/24 01:58:20;;;;;;;2.20;1.20;;;;;;;19.01;43.17;101528.47;4970498;28;20041;-46
2022/02/24 02:00:46;;;;;;;3.53;0.90;;;;;;;19.01;43.04;101527.63;4969695;28;20129;-44
2022/02/24 02:03:11;;;;;;;1.77;0.90;;;;;;;19.00;43.28;101518.06;4968212;28;20120;-44
2022/02/24 02:05:37;;;;;;;1.70;0.80;;;;;;;18.99;43.29;101521.72;4969725;28;20070;-44
2022/02/24 02:08:04;;;;;;;1.30;0.88;;;;;;;18.98;43.23;101517.41;4968789;28;20090;-45
2022/02/24 02:13:05;;;;;;;2.90;1.10;;;;;;;18.95;43.23;101501.94;5089768;23;20061;-39
2022/02/24 02:15:30;;;;;;;2.40;0.80;;;;;;;18.95;43.19;101505.38;5009435;28;20439;-40
2022/02/24 02:17:56;;;;;;;2.95;1.00;;;;;;;18.95;43.20;101504.56;5009459;28;20092;-44
2022/02/24 02:20:22;;;;;;;2.10;1.15;;;;;;;18.95;43.22;101509.84;5009353;28;20029;-40
2022/02/24 02:22:53;;;;;;;1.73;1.20;;;;;;;18.94;42.99;101508.19;5008927;28;20022;-44
2022/02/24 02:25:20;;;;;;;1.98;1.00;;;;;;;18.95;43.19;101505.38;5009481;28;20026;-42
2022/02/24 02:27:48;;;;;;;1.88;1.00;;;;;;;18.93;43.17;101510.03;5008064;28;20416;-44
2022/02/24 02:30:14;;;;;;;1.92;1.00;;;;;;;18.94;43.16;101513.47;5009132;28;20030;-40
2022/02/24 02:32:40;;;;;;;3.00;1.10;;;;;;;18.93;43.08;101512.66;5009228;28;20032;-42
2022/02/24 02:35:06;;;;;;;2.00;1.00;;;;;;;18.93;43.12;101510.03;5009123;28;20101;-44
2022/02/24 02:37:32;;;;;;;1.95;0.98;;;;;;;18.93;42.87;101506.56;5009269;28;20068;-40
2022/02/24 02:39:58;;;;;;;2.03;0.90;;;;;;;18.93;43.12;101506.56;5009306;28;20778;-45
2022/02/24 02:42:23;;;;;;;1.73;1.13;;;;;;;18.92;43.04;101505.72;5009326;28;20034;-48
2022/02/24 02:44:49;;;;;;;1.65;1.00;;;;;;;18.91;42.88;101504.09;5009083;28;20489;-42
2022/02/24 02:47:15;;;;;;;1.92;1.00;;;;;;;18.90;42.95;101505.91;5009142;28;20423;-42
2022/02/24 02:49:40;;;;;;;1.30;0.88;;;;;;;18.89;42.87;101493.72;5008851;28;20343;-42
2022/02/24 02:52:07;;;;;;;1.80;0.80;;;;;;;18.89;42.69;101495.53;5007824;28;20089;-42
2022/02/24 02:54:33;;;;;;;1.10;0.70;;;;;;;18.88;42.71;101488.63;5008938;28;20333;-44
2022/02/24 02:56:58;;;;;;;2.70;0.98;;;;;;;18.87;42.84;101487.81;5008658;28;20464;-46
2022/02/24 02:59:24;;;;;;;2.67;0.80;;;;;;;18.85;42.57;101487.16;5008753;28;20113;-41
2022/02/24 03:01:54;;;;;;;2.17;0.98;;;;;;;18.85;42.66;101484.50;5009206;28;20117;-41
2022/02/24 03:04:21;;;;;;;1.83;0.73;;;;;;;18.85;42.74;101491.59;5008541;28;20034;-42
2022/02/24 03:06:46;;;;;;;1.88;0.93;;;;;;;18.84;42.79;101488.16;5008477;28;20115;-49
2022/02/24 03:09:12;;;;;;;1.90;0.98;;;;;;;18.83;42.51;101491.78;5008853;28;20029;-42
2022/02/24 03:11:38;;;;;;;1.38;0.60;;;;;;;18.83;42.72;101488.31;5008528;28;20381;-43
2022/02/24 03:14:03;;;;;;;1.13;0.70;;;;;;;18.82;42.69;101486.69;5028571;28;20030;-43
2022/02/24 03:16:29;;;;;;;1.20;0.60;;;;;;;18.81;42.69;101487.66;5028137;28;20385;-48
2022/02/24 03:18:54;;;;;;;2.20;0.70;;;;;;;18.79;42.59;101489.66;5028111;28;20029;-44
2022/02/24 03:21:20;;;;;;;1.48;0.75;;;;;;;18.79;42.74;101492.28;5028184;28;20098;-44
2022/02/24 03:23:45;;;;;;;1.52;0.70;;;;;;;18.76;42.61;101485.53;5028083;28;20036;-42
2022/02/24 03:26:11;;;;;;;1.27;0.63;;;;;;;18.76;42.54;101482.91;5027976;28;20484;-41
2022/02/24 03:28:37;;;;;;;1.63;0.90;;;;;;;18.76;42.73;101477.63;5028295;28;20444;-41
2022/02/24 03:31:03;;;;;;;2.80;0.80;;;;;;;18.73;42.70;101475.31;5027617;28;20065;-44
2022/02/24 03:33:29;;;;;;;1.50;1.00;;;;;;;18.75;42.70;101475.16;5027932;28;20037;-45
2022/02/24 03:35:54;;;;;;;1.77;0.77;;;;;;;18.75;42.56;101477.78;5027927;28;20029;-42
2022/02/24 03:38:20;;;;;;;2.28;0.98;;;;;;;18.74;42.58;101471.69;5027560;28;20601;-45
2022/02/24 03:40:45;;;;;;;1.30;1.05;;;;;;;18.76;42.67;101466.25;5027882;28;20080;-40
2022/02/24 03:43:11;;;;;;;1.70;0.75;;;;;;;18.76;42.59;101469.72;5027741;28;20456;-44
2022/02/24 03:45:36;;;;;;;1.38;0.80;;;;;;;18.77;42.69;101466.06;5027815;28;20053;-42
2022/02/24 03:48:02;;;;;;;1.48;0.93;;;;;;;18.76;42.64;101472.34;5027692;28;20044;-46
2022/02/24 03:50:28;;;;;;;1.10;0.70;;;;;;;18.76;42.65;101464.44;5027526;28;20025;-40
2022/02/24 03:52:53;;;;;;;1.10;0.70;;;;;;;18.77;42.74;101462.59;5027313;28;20048;-41
2022/02/24 03:55:19;;;;;;;1.80;0.68;;;;;;;18.77;42.57;101471.34;5027741;28;20037;-48
2022/02/24 03:57:44;;;;;;;1.13;0.68;;;;;;;18.76;42.66;101456.50;5027818;28;20462;-48
2022/02/24 04:00:10;;;;;;;1.73;0.60;;;;;;;18.77;42.58;101459.97;5027005;28;20040;-41
2022/02/24 04:02:36;;;;;;;3.47;0.93;;;;;;;18.76;42.63;101463.59;5026986;28;20397;-40
2022/02/24 04:05:01;;;;;;;1.48;0.88;;;;;;;18.74;42.50;101455.84;5027499;28;20057;-48
2022/02/24 04:07:27;;;;;;;1.42;0.75;;;;;;;18.75;42.43;101461.97;5027151;28;20064;-46
2022/02/24 04:09:53;;;;;;;2.53;0.80;;;;;;;18.74;42.42;101452.41;5027184;28;20146;-43
2022/02/24 04:12:18;;;;;;;1.65;0.60;;;;;;;18.73;42.38;101458.66;5027177;28;20049;-45
2022/02/24 04:14:45;;;;;;;2.65;0.63;;;;;;;18.71;42.32;101458.03;5026932;28;20030;-42
2022/02/24 04:17:11;;;;;;;1.27;0.70;;;;;;;18.71;42.21;101455.38;5027096;28;20038;-41
2022/02/24 04:19:36;;;;;;;2.58;0.80;;;;;;;18.69;42.27;101458.19;5026962;28;20075;-44
2022/02/24 04:22:03;;;;;;;2.15;0.77;;;;;;;18.69;42.37;101460.84;5027118;28;20469;-46
2022/02/24 04:24:29;;;;;;;1.10;0.60;;;;;;;18.68;42.33;101456.53;5027273;28;20306;-42
2022/02/24 04:26:54;;;;;;;1.35;0.60;;;;;;;18.68;42.25;101458.38;5026875;28;20679;-41
2022/02/24 04:29:20;;;;;;;1.38;0.65;;;;;;;18.66;42.15;101458.53;5026806;28;20029;-45
2022/02/24 04:31:45;;;;;;;1.30;0.63;;;;;;;18.66;42.31;101463.81;5026931;28;20033;-42
2022/02/24 04:34:11;;;;;;;1.02;0.70;;;;;;;18.64;42.18;101457.88;5026456;28;20033;-45
2022/02/24 04:36:36;;;;;;;2.05;0.80;;;;;;;18.63;42.22;101456.25;5026821;28;20060;-41
2022/02/24 04:39:02;;;;;;;1.65;0.60;;;;;;;18.62;41.99;101457.22;5026984;28;20055;-43
2022/02/24 04:41:28;;;;;;;1.27;0.50;;;;;;;18.62;42.11;101456.41;5026245;28;20045;-41
2022/02/24 04:43:53;;;;;;;1.30;0.60;;;;;;;18.61;42.16;101457.41;5026562;28;20168;-44
2022/02/24 04:46:19;;;;;;;1.20;0.50;;;;;;;18.60;42.13;101453.94;5026908;28;20057;-45
2022/02/24 04:48:45;;;;;;;1.33;0.70;;;;;;;18.60;41.98;101458.38;5026200;28;20106;-47
2022/02/24 04:51:10;;;;;;;1.77;0.70;;;;;;;18.58;42.12;101451.44;5026723;28;20061;-43
2022/02/24 04:53:36;;;;;;;0.90;0.50;;;;;;;18.60;42.04;101443.38;5026847;28;20461;-44
2022/02/24 04:56:01;;;;;;;1.17;0.68;;;;;;;18.60;42.28;101443.38;5026448;28;20528;-38
2022/02/24 04:58:27;;;;;;;1.60;0.90;;;;;;;18.59;42.09;101444.34;5026598;28;20033;-41
2022/02/24 05:00:53;;;;;;;1.15;0.63;;;;;;;18.59;42.14;101436.44;5026406;28;20116;-41
2022/02/24 05:03:18;;;;;;;3.20;0.80;;;;;;;18.60;42.28;101437.25;5025836;28;20033;-48
2022/02/24 05:05:44;;;;;;;2.53;0.60;;;;;;;18.58;42.32;101432.97;5026674;28;20083;-43
2022/02/24 05:08:10;;;;;;;1.30;0.80;;;;;;;18.59;42.13;101425.88;5026461;28;20087;-45
2022/02/24 05:10:35;;;;;;;1.55;0.40;;;;;;;18.60;42.27;101431.97;5026348;28;20041;-43
2022/02/24 05:13:01;;;;;;;1.30;0.70;;;;;;;18.61;42.08;101439.75;5025874;28;20637;-41
2022/02/24 05:15:27;;;;;;;1.02;0.55;;;;;;;18.64;42.09;101433.31;5025922;28;20038;-44
2022/02/24 05:17:52;;;;;;;1.65;0.77;;;;;;;18.64;41.95;101436.78;5025898;28;20160;-42
2022/02/24 05:20:18;;;;;;;1.55;0.60;;;;;;;18.68;42.10;101432.78;5026308;28;20037;-45
2022/02/24 05:22:43;;;;;;;1.50;0.50;;;;;;;18.70;41.98;101422.88;5026107;28;20469;-43
2022/02/24 05:25:14;;;;;;;2.17;0.70;;;;;;;18.74;42.04;101424.19;5026111;28;20481;-41
2022/02/24 05:27:43;;;;;;;2.63;0.65;;;;;;;18.79;41.99;101421.84;5026469;28;20036;-43
2022/02/24 05:30:15;;;;;;;0.98;0.40;;;;;;;18.82;42.01;101420.66;5026171;28;20082;-45
2022/02/24 05:32:41;;;;;;;1.00;0.43;;;;;;;18.87;42.07;101424.44;5026065;28;20295;-44
2022/02/24 05:35:07;;;;;;;1.00;0.40;;;;;;;18.93;41.83;101416.78;5026278;28;20041;-43
2022/02/24 05:37:34;;;;;;;1.00;0.60;;;;;;;18.97;41.89;101412.78;5025743;28;20128;-42
2022/02/24 05:40:00;;;;;;;1.67;0.45;;;;;;;19.03;41.84;101412.09;5025982;28;20025;-48
2022/02/24 05:42:26;;;;;;;2.03;0.68;;;;;;;19.08;41.78;101415.84;5026172;28;20030;-44
2022/02/24 05:44:52;;;;;;;1.25;0.60;;;;;;;19.14;41.66;101424.88;5026157;28;20095;-46
2022/02/24 05:47:18;;;;;;;1.45;0.70;;;;;;;19.19;41.76;101423.34;5026371;28;20084;-44
2022/02/24 05:49:44;;;;;;;1.10;0.47;;;;;;;19.26;41.59;101423.47;5026067;28;20057;-44
2022/02/24 05:52:10;;;;;;;1.05;0.50;;;;;;;19.31;41.70;101420.28;5025664;28;20034;-43
2022/02/24 05:54:35;;;;;;;2.33;0.70;;;;;;;19.38;41.52;101421.19;5007946;28;20021;-40
2022/02/24 05:57:01;;;;;;;2.80;0.50;;;;;;;19.44;41.54;101421.31;5007824;28;20091;-43
2022/02/24 05:59:27;;;;;;;2.38;0.55;;;;;;;19.51;41.43;101422.25;5025427;28;20040;-43
2022/02/24 06:01:53;;;;;;;1.73;0.60;;;;;;;19.60;41.36;101409.78;5006831;28;20033;-46
2022/02/24 06:04:18;;;;;;;2.25;0.77;;;;;;;19.68;41.22;101422.94;4997267;28;20036;-46
2022/02/24 06:06:44;;;;;;;4.85;0.50;;;;;;;19.78;41.15;101422.69;5005997;28;20088;-44
2022/02/24 06:09:10;;;;;;;3.53;0.70;;;;;;;19.86;40.86;101418.09;5004935;28;20473;-45
2022/02/24 06:11:35;;;;;;;1.40;0.60;;;;;;;19.96;40.84;101419.66;5004147;28;20037;-45
2022/02/24 06:14:01;;;;;;;3.70;0.80;;;;;;;20.04;40.87;101416.91;5001044;28;20436;-45
2022/02/24 06:16:27;;;;;;;5.63;0.65;;;;;;;20.10;40.79;101411.72;4987258;28;20060;-48
2022/02/24 06:18:52;;;;;;;1.55;0.55;;;;;;;20.17;40.66;101417.09;5004775;28;20061;-47
2022/02/24 06:21:18;;;;;;;3.20;0.88;;;;;;;20.22;40.52;101420.00;5005034;28;20034;-49
2022/02/24 06:23:44;;;;;;;1.50;0.70;;;;;;;20.26;40.62;101423.09;5005313;28;20048;-45
2022/02/24 06:26:10;;;;;;;1.20;0.63;;;;;;;20.30;40.39;101413.78;5005361;28;20033;-45
2022/02/24 06:28:36;;;;;;;3.20;0.73;;;;;;;20.34;40.51;101412.41;5005133;28;20461;-47
2022/02/24 06:31:01;;;;;;;1.10;0.70;;;;;;;20.38;40.35;101413.69;5008912;28;20032;-40
2022/02/24 06:33:27;;;;;;;2.42;0.52;;;;;;;20.43;40.44;101416.59;5009176;28;20026;-51
2022/02/24 06:35:52;;;;;;;3.17;0.50;;;;;;;20.47;40.24;101410.75;5007719;28;20465;-44
2022/02/24 06:38:18;;;;;;;1.30;0.60;;;;;;;20.50;40.09;101404.28;5009205;28;20126;-44
2022/02/24 06:40:43;;;;;;;1.80;0.70;;;;;;;20.54;40.03;101400.25;5007012;28;20037;-44
2022/02/24 06:43:09;;;;;;;2.20;0.70;;;;;;;20.57;40.12;101397.22;5005782;28;20030;-45
2022/02/24 06:45:35;;;;;;;1.55;0.90;;;;;;;20.61;40.18;101395.84;5008717;28;20088;-43
2022/02/24 06:48:00;;;;;;;1.33;0.60;;;;;;;20.64;39.74;101397.31;5007128;28;20033;-43
2022/02/24 06:50:26;;;;;;;1.35;0.73;;;;;;;20.64;40.09;101398.13;5009120;28;20029;-44
2022/02/24 06:52:51;;;;;;;1.45;0.50;;;;;;;20.66;39.96;101403.22;5007615;28;20037;-45
2022/02/24 06:55:17;;;;;;;2.35;1.02;;;;;;;20.65;40.01;101397.13;5007517;28;20133;-46
2022/02/24 06:57:52;;;;;;;1.20;0.60;;;;;;;20.64;39.70;101403.41;5005945;28;20069;-47
2022/02/24 07:00:18;;;;;;;1.80;0.65;;;;;;;20.64;39.95;101403.41;5002686;28;20037;-44
2022/02/24 07:02:44;;;;;;;1.63;0.60;;;;;;;20.64;39.75;101413.19;5007449;28;20022;-42
2022/02/24 07:05:10;;;;;;;3.30;0.70;;;;;;;20.64;39.80;101414.00;5007256;28;20033;-41
2022/02/24 07:07:36;;;;;;;3.70;0.77;;;;;;;20.64;39.89;101419.31;5008766;28;20030;-42
2022/02/24 07:10:08;;;;;;;1.80;0.73;;;;;;;20.62;40.00;101413.38;4986598;28;20037;-42
2022/02/24 07:12:35;;;;;;;1.30;0.70;;;;;;;20.62;39.87;101416.03;5002246;28;20066;-45
2022/02/24 07:15:01;;;;;;;3.83;0.60;;;;;;;20.61;39.82;101422.31;4999967;28;20461;-43
2022/02/24 07:17:26;;;;;;;1.00;0.65;;;;;;;20.60;39.76;101418.03;5007778;28;20033;-43
2022/02/24 07:19:52;;;;;;;1.60;0.80;;;;;;;20.60;39.89;101422.50;5008598;28;20414;-41
2022/02/24 07:22:17;;;;;;;1.20;0.60;;;;;;;20.59;39.94;101426.16;5005658;28;20036;-44
2022/02/24 07:24:42;;;;;;;1.20;0.52;;;;;;;20.60;39.87;101419.88;5007439;28;20025;-42
2022/02/24 07:27:08;;;;;;;1.20;0.70;;;;;;;20.59;39.71;101426.97;5004068;28;20129;-48
2022/02/24 07:29:33;;;;;;;2.10;0.52;;;;;;;20.59;39.73;101432.28;5009344;28;20030;-43
2022/02/24 07:31:59;;;;;;;3.97;0.50;;;;;;;20.60;39.93;101433.09;5025279;28;20117;-45
2022/02/24 07:34:24;;;;;;;3.55;0.80;;;;;;;20.62;40.02;101429.25;5017070;28;20072;-40
2022/02/24 07:36:50;;;;;;;2.00;0.85;;;;;;;20.67;40.94;101429.53;4996177;28;20504;-45
2022/02/24 07:39:17;;;;;;;1.77;1.05;;;;;;;20.63;41.00;101433.56;4989102;28;20076;-41
2022/02/24 07:41:43;;;;;;;2.42;0.70;;;;;;;20.59;40.91;101432.28;4990260;28;20040;-45
2022/02/24 07:44:08;;;;;;;2.17;0.40;;;;;;;20.55;40.75;101431.00;5005723;28;20026;-49
2022/02/24 07:46:34;;;;;;;4.95;0.70;;;;;;;20.52;40.79;101437.50;5003365;28;20105;-42
2022/02/24 07:49:00;;;;;;;4.40;0.88;;;;;;;20.51;41.08;101433.22;5007247;28;20026;-42
2022/02/24 07:51:26;;;;;;;3.10;0.82;;;;;;;20.53;41.16;101430.38;4990256;28;20472;-46
2022/02/24 07:53:52;;;;;;;3.70;0.80;;;;;;;20.54;41.56;101434.66;4997230;28;20031;-45
2022/02/24 07:56:17;;;;;;;5.75;0.55;;;;;;;20.53;41.94;101427.72;4987082;28;20030;-51
2022/02/24 07:58:43;;;;;;;2.67;0.60;;;;;;;20.47;42.17;101426.63;5001743;28;20032;-42
2022/02/24 08:01:09;;;;;;;7.38;0.77;;;;;;;20.44;42.56;101416.44;5003275;28;20044;-43
2022/02/24 08:03:35;;;;;;;4.30;0.90;;;;;;;20.41;42.38;101422.09;5006200;28;20034;-44
2022/02/24 08:06:00;;;;;;;2.10;0.60;;;;;;;20.39;42.42;101425.91;5006004;28;20040;-46
2022/02/24 08:08:26;;;;;;;2.38;0.50;;;;;;;20.37;42.24;101420.78;5006985;28;20037;-41
2022/02/24 08:10:53;;;;;;;1.58;0.60;;;;;;;20.37;42.08;101419.97;5008011;28;20022;-47
2022/02/24 08:13:18;;;;;;;2.85;0.50;;;;;;;20.37;42.21;101431.38;4988542;28;20053;-43
2022/02/24 08:15:44;;;;;;;3.60;0.77;;;;;;;20.37;42.41;101427.91;5006974;28;20381;-43
2022/02/24 08:18:10;;;;;;;4.63;0.55;;;;;;;20.36;42.55;101426.25;5006624;28;20103;-46
2022/02/24 08:20:36;;;;;;;8.90;0.70;;;;;;;20.33;42.65;101421.34;5003250;28;20037;-40
2022/02/24 08:23:03;;;;;;;3.60;1.20;;;;;;;20.33;42.87;101416.03;4991789;28;20070;-41
2022/02/24 08:25:30;;;;;;;3.83;0.52;;;;;;;20.32;43.05;101419.72;4984049;28;20030;-43
2022/02/24 08:27:56;;;;;;;3.72;0.65;;;;;;;20.30;42.81;101422.56;5007445;28;20037;-43
2022/02/24 08:30:22;;;;;;;8.25;0.70;;;;;;;20.29;42.99;101405.03;5002374;28;20041;-43
2022/02/24 08:32:49;;;;;;;2.83;0.68;;;;;;;20.25;43.01;101406.41;4983564;28;20026;-42
2022/02/24 08:35:16;;;;;;;2.85;0.68;;;;;;;20.23;42.78;101405.78;5000650;28;20135;-44
2022/02/24 08:37:49;;;;;;;10.60;0.98;;;;;;;20.22;42.62;101406.78;5001523;28;20042;-42
2022/02/24 08:40:19;;;;;;;3.72;0.45;;;;;;;20.18;42.68;101402.84;5007624;28;20205;-42
2022/02/24 08:42:45;;;;;;;7.45;0.90;;;;;;;20.17;42.73;101409.97;5006790;28;20129;-42
2022/02/24 08:45:11;;;;;;;5.22;0.70;;;;;;;20.14;42.60;101402.41;5005451;28;20169;-40
2022/02/24 08:47:38;;;;;;;2.10;0.80;;;;;;;20.13;42.64;101402.59;4988202;28;20033;-42
2022/02/24 08:50:04;;;;;;;2.05;0.60;;;;;;;20.09;42.64;101404.78;4994957;28;20070;-41
2022/02/24 08:52:30;;;;;;;3.03;1.10;;;;;;;20.06;42.51;101405.16;5007364;28;20029;-44
2022/02/24 08:54:56;;;;;;;8.02;0.90;;;;;;;20.03;42.57;101400.22;5024073;28;20037;-41
2022/02/24 08:57:21;;;;;;;2.08;0.57;;;;;;;20.00;42.64;101394.47;5027440;28;20040;-41
2022/02/24 08:59:47;;;;;;;3.50;0.47;;;;;;;19.98;42.66;101399.13;5027305;28;20304;-41
2022/02/24 09:02:13;;;;;;;2.03;0.40;;;;;;;19.97;42.76;101400.13;5002302;28;20026;-41
2022/02/24 09:04:38;;;;;;;5.32;0.70;;;;;;;19.94;42.67;101395.22;5007522;28;20037;-41
2022/02/24 09:07:04;;;;;;;1.85;0.50;;;;;;;19.92;42.66;101389.28;5005483;28;20038;-42
2022/02/24 09:09:29;;;;;;;2.38;0.60;;;;;;;19.89;42.50;101393.09;4999770;28;20026;-40
2022/02/24 09:11:55;;;;;;;4.18;1.35;;;;;;;19.80;40.85;101389.75;4986927;28;20193;-40
2022/02/24 09:14:21;;;;;;;2.65;1.48;;;;;;;19.71;39.87;101390.03;5000447;28;20179;-41
2022/02/24 09:16:46;;;;;;;7.28;1.00;;;;;;;19.69;39.49;101386.75;5006655;28;20033;-42
2022/02/24 09:19:12;;;;;;;5.25;1.15;;;;;;;19.67;39.40;101379.00;5002347;28;20044;-43
2022/02/24 09:21:39;;;;;;;11.50;1.58;;;;;;;19.67;39.16;101383.47;5009214;28;20037;-42
2022/02/24 09:24:05;;;;;;;2.42;1.20;;;;;;;19.70;39.11;101378.63;5020879;28;20041;-46
2022/02/24 09:26:31;;;;;;;4.68;1.38;;;;;;;19.72;39.24;101373.16;4996084;28;20022;-43
2022/02/24 09:28:57;;;;;;;3.15;0.90;;;;;;;19.74;39.41;101376.44;4991883;28;20046;-42
2022/02/24 09:31:23;;;;;;;5.80;0.90;;;;;;;19.74;39.26;101371.16;4988168;28;20575;-41
2022/02/24 09:33:48;;;;;;;3.17;1.50;;;;;;;19.74;39.57;101365.88;4988036;28;20145;-42
2022/02/24 09:36:14;;;;;;;2.58;1.02;;;;;;;19.72;39.67;101355.47;4987653;28;20173;-42
2022/02/24 09:38:40;;;;;;;3.00;1.00;;;;;;;19.74;39.96;101357.94;4987945;28;20058;-42
2022/02/24 09:41:06;;;;;;;1.55;0.77;;;;;;;19.73;39.96;101354.47;4988871;28;20042;-41
2022/02/24 09:43:33;;;;;;;4.68;1.00;;;;;;;19.73;40.44;101348.38;4992326;28;20129;-42
2022/02/24 09:46:02;;;;;;;3.50;1.00;;;;;;;19.74;39.98;101350.00;4989882;28;20058;-41
2022/02/24 09:48:31;;;;;;;3.83;0.90;;;;;;;19.73;40.19;101348.38;5004612;28;20481;-47
2022/02/24 09:50:57;;;;;;;3.13;1.00;;;;;;;19.72;40.34;101344.06;4987621;28;20443;-41
2022/02/24 09:53:26;;;;;;;2.38;1.10;;;;;;;19.73;40.57;101343.06;4987963;28;20072;-43
2022/02/24 09:55:51;;;;;;;1.70;0.60;;;;;;;19.71;40.56;101337.97;4970068;28;20030;-42
2022/02/24 09:58:17;;;;;;;2.03;0.80;;;;;;;19.70;40.68;101331.03;4988766;28;20469;-44
2022/02/24 10:00:43;;;;;;;2.55;0.80;;;;;;;19.69;40.77;101333.88;4988212;28;20050;-42
2022/02/24 10:03:25;;;;;;;1.35;0.90;;;;;;;19.64;40.81;101329.13;4991924;28;20030;-43
2022/02/24 10:05:51;;;;;;;3.83;0.80;;;;;;;19.64;41.10;101331.78;4991929;28;20383;-43
2022/02/24 10:08:16;;;;;;;1.95;0.77;;;;;;;19.64;41.08;101330.94;4991790;28;20031;-42
2022/02/24 10:10:43;;;;;;;1.40;0.50;;;;;;;19.64;41.04;101326.50;5009656;28;20022;-42
2022/02/24 10:13:12;;;;;;;1.58;0.82;;;;;;;19.64;41.21;101328.31;5010479;28;20104;-43
2022/02/24 10:15:52;;;;;;;1.30;0.43;;;;;;;19.60;41.21;101313.81;4993133;28;20046;-42
2022/02/24 10:18:19;;;;;;;1.95;0.75;;;;;;;19.61;41.46;101311.00;5010916;28;20025;-42
2022/02/24 10:20:50;;;;;;;1.73;0.65;;;;;;;19.62;41.42;101309.16;4991135;28;20038;-42
2022/02/24 10:23:17;;;;;;;2.00;0.63;;;;;;;19.61;41.67;101304.88;4991033;28;20056;-43
2022/02/24 10:25:47;;;;;;;2.78;0.73;;;;;;;19.60;41.72;101300.59;4973474;28;20053;-42
2022/02/24 10:28:31;;;;;;;2.38;0.80;;;;;;;19.57;41.83;101298.31;4991135;28;20037;-41
2022/02/24 10:30:57;;;;;;;1.98;0.60;;;;;;;19.58;41.66;101292.84;4991051;28;20799;-42
2022/02/24 10:33:29;;;;;;;2.13;0.50;;;;;;;19.58;41.93;101297.31;4990400;28;20054;-42
2022/02/24 10:36:07;;;;;;;1.98;0.73;;;;;;;19.58;41.87;101290.22;4991051;28;20031;-43
2022/02/24 10:38:33;;;;;;;1.55;0.57;;;;;;;19.59;42.05;101280.44;4991423;28;20031;-42
2022/02/24 10:40:58;;;;;;;1.55;0.75;;;;;;;19.57;41.85;101285.09;4998586;28;20038;-44
2022/02/24 10:43:26;;;;;;;2.80;0.70;;;;;;;19.54;42.00;101278.34;4990725;28;20081;-41
2022/02/24 10:46:04;;;;;;;3.40;0.40;;;;;;;19.53;42.19;101276.72;5002884;28;20033;-41
2022/02/24 10:48:33;;;;;;;1.75;0.50;;;;;;;19.53;42.19;101266.97;5010311;28;20041;-43
2022/02/24 10:51:01;;;;;;;1.30;0.43;;;;;;;19.55;41.90;101272.06;4992895;28;20096;-42
2022/02/24 10:53:36;;;;;;;1.45;0.63;;;;;;;19.51;42.24;101268.97;4990456;28;20030;-41
2022/02/24 10:56:09;;;;;;;2.05;0.40;;;;;;;19.51;42.38;101257.56;4990737;28;20038;-42
2022/02/24 10:58:36;;;;;;;2.30;0.70;;;;;;;19.51;42.26;101245.19;4990643;28;20039;-41
2022/02/24 11:01:26;;;;;;;1.83;0.60;;;;;;;19.48;42.61;101248.16;5006969;28;20061;-42
2022/02/24 11:03:53;;;;;;;1.17;0.50;;;;;;;19.50;42.58;101243.50;5009943;28;20049;-42
2022/02/24 11:06:20;;;;;;;1.23;0.50;;;;;;;19.49;42.49;101233.13;5009987;28;20112;-42
2022/02/24 11:08:47;;;;;;;2.22;0.50;;;;;;;19.49;42.56;101227.84;4992161;28;20037;-45
2022/02/24 11:11:34;;;;;;;1.70;0.70;;;;;;;19.45;42.63;101222.09;5008150;28;20029;-43
2022/02/24 11:14:01;;;;;;;2.03;0.50;;;;;;;19.46;42.58;101222.91;5008784;28;20060;-43
2022/02/24 11:16:28;;;;;;;1.10;0.38;;;;;;;19.45;42.58;101218.63;5009573;28;20033;-42
2022/02/24 11:18:59;;;;;;;2.60;0.63;;;;;;;19.44;42.78;101209.88;5009648;28;20038;-41
2022/02/24 11:21:26;;;;;;;2.33;0.60;;;;;;;19.44;42.79;101211.72;4989753;28;20067;-41
2022/02/24 11:23:53;;;;;;;0.98;0.43;;;;;;;19.42;42.87;101203.97;4989839;28;20049;-42